Palmer, Indiana
Current Conditions -  °F | °C
As of 11:35 PM on Saturday 25 Oct 2014 (Local Time) from KIGQ Reporting Station
Clear Clear  
Wind Chill: 54°   Ceiling: Unl
Heat Index: 54°   Visibility: 10mi
Dew Point: 30°   Wind: 5mph
Humidity: 40%   Direction: 320°NW
Pressure: 29.97"   Gusts: NA
Location:  41.4039°N, 87.3294°W
Report Text: KIGQ 260435Z AUTO 32004KT 10SM CLR 12/M01 A2997 RMK AO2 T01241010
Loading
Personal Weather Stations






























Interactive Weather Map
Tropical Storm Tracking
New forecast layout! Learn more

10-Day Weather Forecast

Advertisements
Track Severe Weather on mobile